Aeroporto :
LOGIN :

Iscrizione | Disclaimer

   EN    FR    IT 

 










Sommario :    VFR   VFR Marginale   IFR   IFR Intensivo   IFR Molto Intensivo
Visibilità : 
Base nubi : 
>= 8 km
>= 3000ft
5 / 8 km
1000 / 3000 ft
1500m / 5 km
500 / 1000 ft
800 / 1500m
200 / 500 ft
< 800m
< 200 ft
Simboli :   Temporali  Nebbia  Neve Forte  Precipitazioni Forti  Vento > 20 kt
SIGMETs :   Varie  Temporali  Ghiacco  Turbolenza  Onda orograficha  Ceneri Vulcaniche






- Altitudine del aeroporto : 538 ft
- Codice IATA : TNF


LFPN - Toussus Le Noble

ULTIMO METAR :
  • 141430Z AUTO 33005KT 290V010 9999 NCD 19/11 Q1021 NOSIG

METARs OBSOLETI :
  • 141400Z AUTO 33005KT 290V010 9999 SCT037/// 19/11 Q1022 NOSIG
  • 141330Z AUTO VRB03KT 9999 FEW035 20/10 Q1022 NOSIG
  • 141300Z AUTO VRB03KT 9999 FEW034/// 19/10 Q1023 NOSIG
  • 141230Z AUTO 01005KT 310V050 9999 NCD 18/11 Q1023 NOSIG
  • 141200Z AUTO 36004KT 320V050 9999 NCD 18/10 Q1024 NOSIG
  • 141130Z AUTO VRB02KT 9999 FEW024/// 18/10 Q1024 NOSIG
  • 141100Z AUTO 29003KT 210V010 9999 SCT022/// 18/11 Q1024 NOSIG
  • 141030Z AUTO 36004KT 310V040 9999 NCD 16/11 Q1025 NOSIG
  • 141000Z AUTO 32005KT 290V360 9999 FEW016/// 15/10 Q1025 NOSIG

TAF TAF LFPN
Valido dal 14 a 15 ore il 15 a 00 ore UTC


141400Z 1415/1424 31007KT 9999 FEW030
ATIS : +33 1 39 56 54 70



MetMap, La meteo Aeronautica in un colpo d'occhio ! - Copyright ORBIFLY Dicembre 2007 - Disclaimer

ORBIFLY MET'MAP TEAM :

Programmazione e sviluppo : Alexandra Zaïnal
Concezione : Baudouin d'Aumeries
Supporto tecnico e logistico : Manuel Goepfert
Aiuto : Marc-Olivier Méhu
Aiuto per la traduzione : Arnaldo La Scala




FONTI E CREDITI :

   NOAA